createdAt,value
2023-02-12T00:00:49.598Z,1.70
2023-02-12T00:03:58.814Z,1.70
2023-02-12T00:07:01.398Z,1.73
2023-02-12T00:10:12.574Z,1.90
2023-02-12T00:13:34.259Z,1.70
2023-02-12T00:16:53.772Z,1.80
2023-02-12T00:20:34.626Z,1.70
2023-02-12T00:23:41.716Z,1.70
2023-02-12T00:27:21.235Z,1.58
2023-02-12T00:30:42.510Z,1.58
2023-02-12T00:33:44.557Z,1.48
2023-02-12T00:36:58.641Z,1.80
2023-02-12T00:46:25.509Z,1.30
2023-02-12T00:49:33.411Z,1.40
2023-02-12T00:52:36.526Z,1.40
2023-02-12T00:55:33.713Z,1.60
2023-02-12T00:59:10.442Z,1.70
2023-02-12T01:02:26.402Z,1.50
2023-02-12T01:05:54.772Z,1.35
2023-02-12T01:09:02.364Z,1.50
2023-02-12T01:12:06.917Z,1.27
2023-02-12T01:15:13.868Z,1.73
2023-02-12T01:22:21.565Z,1.50
2023-02-12T01:25:36.508Z,1.70
2023-02-12T01:29:02.115Z,1.40
2023-02-12T01:32:01.166Z,1.52
2023-02-12T01:35:12.911Z,1.58
2023-02-12T01:38:21.629Z,1.60
2023-02-12T01:41:34.648Z,1.58
2023-02-12T01:44:52.942Z,1.58
2023-02-12T01:48:04.350Z,1.17
2023-02-12T01:51:12.383Z,1.38
2023-02-12T01:54:25.661Z,1.35
2023-02-12T01:57:36.950Z,1.40
2023-02-12T02:00:41.692Z,1.60
2023-02-12T02:04:06.636Z,1.52
2023-02-12T02:07:13.700Z,1.33
2023-02-12T02:10:21.648Z,1.55
2023-02-12T02:13:53.743Z,1.50
2023-02-12T02:17:43.993Z,1.60
2023-02-12T02:21:13.967Z,1.42
2023-02-12T02:24:34.077Z,1.42
2023-02-12T02:28:14.394Z,1.58
2023-02-12T02:35:01.357Z,1.55
2023-02-12T02:40:07.878Z,1.63
2023-02-12T02:44:22.550Z,2.00
2023-02-12T02:52:12.414Z,1.90
2023-02-12T02:56:01.929Z,1.63
2023-02-12T03:00:09.056Z,1.95
2023-02-12T03:03:35.117Z,1.77
2023-02-12T03:07:21.523Z,1.80
2023-02-12T03:10:57.882Z,1.75
2023-02-12T03:14:12.160Z,1.80
2023-02-12T03:21:33.670Z,1.70
2023-02-12T03:25:13.036Z,1.80
2023-02-12T03:28:54.798Z,1.85
2023-02-12T03:32:34.586Z,1.65
2023-02-12T03:36:40.727Z,1.63
2023-02-12T03:40:12.228Z,1.88
2023-02-12T03:51:18.211Z,1.90
2023-02-12T03:54:49.453Z,2.00
2023-02-12T03:58:10.539Z,1.65
2023-02-12T04:01:41.830Z,1.70
2023-02-12T04:13:05.974Z,1.60
2023-02-12T04:16:42.285Z,1.90
2023-02-12T04:20:09.055Z,1.70
2023-02-12T04:23:39.086Z,1.80
2023-02-12T04:27:06.430Z,1.90
2023-02-12T04:30:42.471Z,2.00
2023-02-12T04:33:50.122Z,1.73
2023-02-12T04:37:22.292Z,2.08
2023-02-12T04:41:02.486Z,2.35
2023-02-12T04:44:07.781Z,2.05
2023-02-12T04:47:42.415Z,2.03
2023-02-12T04:51:00.409Z,2.03
2023-02-12T04:54:22.735Z,1.90
2023-02-12T04:57:26.742Z,2.13
2023-02-12T05:00:34.360Z,2.28
2023-02-12T05:04:21.941Z,2.30
2023-02-12T05:07:20.718Z,2.10
2023-02-12T05:13:47.585Z,2.08
2023-02-12T05:16:53.501Z,2.35
2023-02-12T05:20:06.752Z,2.28
2023-02-12T05:23:18.929Z,2.38
2023-02-12T05:26:50.277Z,2.42
2023-02-12T05:33:46.833Z,1.97
2023-02-12T05:36:50.446Z,2.03
2023-02-12T05:44:04.439Z,2.10
2023-02-12T05:47:10.309Z,2.00
2023-02-12T05:50:14.125Z,2.20
2023-02-12T05:57:02.754Z,2.20
2023-02-12T06:00:10.164Z,2.20
2023-02-12T06:03:44.638Z,2.20
2023-02-12T06:07:21.614Z,2.20
2023-02-12T06:13:36.305Z,2.22
2023-02-12T06:16:46.440Z,1.90
2023-02-12T06:19:54.005Z,2.40
2023-02-12T06:23:06.757Z,2.20
2023-02-12T06:26:50.701Z,2.20
2023-02-12T06:30:33.084Z,2.30
2023-02-12T06:33:43.139Z,2.22
2023-02-12T06:36:54.497Z,2.17
2023-02-12T06:40:09.434Z,2.30
2023-02-12T06:43:14.194Z,2.30
2023-02-12T06:47:02.426Z,2.22
2023-02-12T06:50:02.267Z,2.17
2023-02-12T06:53:14.200Z,2.15
2023-02-12T06:56:30.514Z,2.22
2023-02-12T07:00:01.977Z,2.00
2023-02-12T07:03:22.072Z,2.30
2023-02-12T07:10:01.038Z,2.38
2023-02-12T07:13:05.966Z,2.40
2023-02-12T07:16:17.398Z,2.50
2023-02-12T07:19:45.903Z,2.20
2023-02-12T07:23:00.739Z,2.15
2023-02-12T07:26:19.103Z,2.20
2023-02-12T07:30:02.079Z,2.55
2023-02-12T07:33:10.853Z,2.20
2023-02-12T07:36:33.816Z,2.25
2023-02-12T07:43:03.206Z,1.88
2023-02-12T07:46:09.638Z,2.20
2023-02-12T07:49:45.292Z,2.30
2023-02-12T07:56:36.674Z,2.40
2023-02-12T07:59:45.375Z,2.20
2023-02-12T08:02:51.915Z,2.30
2023-02-12T08:06:02.008Z,2.00
2023-02-12T08:09:34.225Z,2.10
2023-02-12T08:12:35.074Z,1.95
2023-02-12T08:16:26.191Z,2.25
2023-02-12T08:20:00.956Z,2.30
2023-02-12T08:23:02.425Z,2.20
2023-02-12T08:26:09.025Z,2.40
2023-02-12T08:29:54.100Z,2.35
2023-02-12T08:40:27.943Z,2.20
2023-02-12T08:43:43.035Z,2.30
2023-02-12T08:47:25.587Z,2.30
2023-02-12T08:54:26.358Z,1.95
2023-02-12T08:57:31.085Z,2.22
2023-02-12T09:00:42.787Z,2.10
2023-02-12T09:11:02.032Z,2.10
2023-02-12T09:14:17.376Z,2.30
2023-02-12T09:18:06.225Z,2.20
2023-02-12T09:20:54.785Z,2.20
2023-02-12T09:24:02.388Z,2.47
2023-02-12T09:27:28.241Z,2.30
2023-02-12T09:30:51.287Z,2.53
2023-02-12T09:34:50.230Z,2.35
2023-02-12T09:51:03.089Z,2.10
2023-02-12T09:54:46.668Z,2.20
2023-02-12T09:57:55.039Z,2.10
2023-02-12T10:01:02.758Z,2.00
2023-02-12T10:04:58.664Z,2.30
2023-02-12T10:08:26.137Z,2.20
2023-02-12T10:11:53.738Z,2.15
2023-02-12T10:15:18.884Z,2.25
2023-02-12T10:19:12.579Z,2.15
2023-02-12T10:22:18.693Z,2.13
2023-02-12T10:26:15.092Z,2.13
2023-02-12T10:29:54.648Z,2.30
2023-02-12T10:33:51.200Z,2.20
2023-02-12T10:37:10.300Z,2.20
2023-02-12T10:41:07.494Z,2.03
2023-02-12T10:44:25.706Z,2.15
2023-02-12T10:52:09.215Z,2.42
2023-02-12T10:55:37.189Z,2.17
2023-02-12T11:02:15.608Z,2.20
2023-02-12T11:09:10.096Z,2.30
2023-02-12T11:17:08.498Z,2.00
2023-02-12T11:25:21.933Z,2.30
2023-02-12T11:29:09.638Z,2.00
2023-02-12T11:33:12.394Z,2.33
2023-02-12T11:42:12.882Z,2.08
2023-02-12T11:45:47.225Z,2.00
2023-02-12T11:49:21.920Z,2.38
2023-02-12T11:53:17.827Z,2.10
2023-02-12T12:01:54.547Z,2.00
2023-02-12T12:05:26.346Z,2.28
2023-02-12T12:08:42.717Z,2.00
2023-02-12T12:12:26.479Z,1.88
2023-02-12T12:16:24.884Z,2.30
2023-02-12T12:21:04.852Z,2.10
2023-02-12T12:24:26.179Z,2.10
2023-02-12T12:28:06.647Z,2.05
2023-02-12T12:31:33.827Z,2.13
2023-02-12T12:34:36.547Z,2.15
2023-02-12T12:38:10.259Z,2.30
2023-02-12T12:42:06.164Z,2.22
2023-02-12T12:45:55.706Z,2.30
2023-02-12T12:50:16.684Z,2.10
2023-02-12T12:53:54.014Z,1.90
2023-02-12T13:01:50.639Z,2.20
2023-02-12T13:06:14.459Z,1.80
2023-02-12T13:10:21.057Z,1.77
2023-02-12T13:19:05.121Z,2.10
2023-02-12T13:29:49.256Z,1.80
2023-02-12T13:34:20.925Z,2.00
2023-02-12T13:38:11.960Z,2.10
2023-02-12T13:41:22.543Z,1.98
2023-02-12T13:45:18.444Z,1.98
2023-02-12T13:49:00.981Z,2.10
2023-02-12T13:52:22.321Z,2.10
2023-02-12T13:55:54.037Z,2.20
2023-02-12T13:59:42.394Z,2.10
2023-02-12T14:02:46.291Z,2.20
2023-02-12T14:05:52.632Z,2.00
2023-02-12T14:09:26.437Z,2.40
2023-02-12T14:12:54.268Z,2.05
2023-02-12T14:16:04.974Z,2.13
2023-02-12T14:19:49.930Z,2.30
2023-02-12T14:23:04.647Z,2.40
2023-02-12T14:26:26.930Z,2.50
2023-02-12T14:29:40.427Z,2.40
2023-02-12T14:33:06.074Z,2.30
2023-02-12T14:36:51.120Z,2.20
2023-02-12T14:40:01.907Z,2.22
2023-02-12T14:43:13.006Z,2.08
2023-02-12T14:46:42.870Z,2.40
2023-02-12T14:50:03.229Z,2.10
2023-02-12T14:53:09.975Z,2.10
2023-02-12T14:56:16.618Z,2.30
2023-02-12T14:59:53.866Z,2.40
2023-02-12T15:03:32.425Z,2.40
2023-02-12T15:06:51.248Z,1.90
2023-02-12T15:10:04.075Z,2.15
2023-02-12T15:13:42.236Z,2.08
2023-02-12T15:17:02.121Z,2.10
2023-02-12T15:20:36.510Z,2.20
2023-02-12T15:23:58.629Z,2.00
2023-02-12T15:27:10.011Z,2.13
2023-02-12T15:30:24.422Z,2.17
2023-02-12T15:33:45.613Z,2.05
2023-02-12T15:36:54.355Z,2.17
2023-02-12T15:40:35.201Z,2.30
2023-02-12T15:43:46.196Z,2.10
2023-02-12T15:46:55.033Z,2.20
2023-02-12T15:50:01.177Z,2.47
2023-02-12T15:53:07.239Z,2.13
2023-02-12T15:56:11.176Z,2.10
2023-02-12T15:59:18.321Z,2.40
2023-02-12T16:02:40.891Z,2.15
2023-02-12T16:06:14.616Z,2.30
2023-02-12T16:13:03.244Z,2.22
2023-02-12T16:20:03.350Z,1.95
2023-02-12T16:27:02.745Z,2.25
2023-02-12T16:30:49.915Z,1.92
2023-02-12T16:38:05.027Z,2.30
2023-02-12T16:41:34.797Z,2.10
2023-02-12T16:44:45.330Z,2.00
2023-02-12T16:48:33.535Z,1.77
2023-02-12T16:52:05.934Z,2.10
2023-02-12T16:55:14.907Z,2.03
2023-02-12T16:58:45.873Z,2.17
2023-02-12T17:01:46.139Z,2.30
2023-02-12T17:05:08.834Z,2.03
2023-02-12T17:08:11.347Z,2.00
2023-02-12T17:14:55.513Z,2.22
2023-02-12T17:18:34.790Z,2.20
2023-02-12T17:22:05.582Z,2.15
2023-02-12T17:25:47.944Z,2.15
2023-02-12T17:29:06.276Z,2.25
2023-02-12T17:32:29.773Z,2.30
2023-02-12T17:35:46.739Z,2.17
2023-02-12T17:39:02.801Z,2.20
2023-02-12T17:42:10.644Z,2.10
2023-02-12T17:45:38.693Z,1.92
2023-02-12T17:52:18.339Z,2.10
2023-02-12T17:55:37.132Z,2.38
2023-02-12T17:58:43.331Z,1.98
2023-02-12T18:01:50.547Z,2.20
2023-02-12T18:05:03.401Z,2.30
2023-02-12T18:08:10.995Z,2.08
2023-02-12T18:11:26.741Z,2.15
2023-02-12T18:14:33.276Z,2.13
2023-02-12T18:18:17.198Z,2.13
2023-02-12T18:21:42.356Z,2.20
2023-02-12T18:42:48.472Z,1.95
2023-02-12T18:46:10.748Z,2.03
2023-02-12T18:49:54.665Z,1.88
2023-02-12T18:52:54.177Z,1.77
2023-02-12T18:56:12.807Z,1.83
2023-02-12T18:59:35.381Z,1.80
2023-02-12T19:02:43.016Z,1.90
2023-02-12T19:05:52.250Z,2.20
2023-02-12T19:09:00.790Z,2.05
2023-02-12T19:16:06.800Z,1.70
2023-02-12T19:19:34.562Z,1.98
2023-02-12T19:24:14.514Z,1.90
2023-02-12T19:27:51.395Z,2.00
2023-02-12T19:35:57.375Z,1.75
2023-02-12T19:39:23.888Z,2.00
2023-02-12T19:42:53.467Z,1.88
2023-02-12T19:46:18.190Z,2.10
2023-02-12T19:51:03.481Z,2.00
2023-02-12T19:54:22.278Z,1.90
2023-02-12T19:57:46.438Z,1.95
2023-02-12T20:01:02.486Z,1.83
2023-02-12T20:04:06.634Z,1.95
2023-02-12T20:07:14.590Z,2.22
2023-02-12T20:10:22.126Z,1.95
2023-02-12T20:17:02.436Z,1.73
2023-02-12T20:20:05.625Z,2.10
2023-02-12T20:49:25.436Z,1.80
2023-02-12T20:57:07.538Z,1.85
2023-02-12T21:00:02.375Z,1.80
2023-02-12T21:06:45.050Z,2.05
2023-02-12T21:09:43.037Z,2.00
2023-02-12T21:12:42.335Z,2.13
2023-02-12T21:15:54.380Z,2.13
2023-02-12T21:22:52.628Z,2.25
2023-02-12T21:31:17.900Z,1.98
2023-02-12T21:35:31.156Z,1.98
2023-02-12T23:17:56.478Z,2.40
